This demonstration page uses our WeatherBlox Daily Observations layout. Learn more.

Hourly Observations for July 10, 2017

Temp ( °F °C ) Dew Point ( °F °C ) Humidity (%) Winds ( mph kmh ) Pressure ( in mb ) Visibility ( mi km ) Precip ( " mm )
12:53 am 00:53 Clear 64 17.8 63 17.2 96 96 Calm 30.04 1017 10 16.0934 0 0
1:53 am 01:53 Clear 64 17.8 63 17.2 96 96 Calm 30.02 1017 10 16.0934 0 0
2:53 am 02:53 Partly Cloudy 70 21.1 63 17.2 79 79 Calm 30.01 1016 10 16.0934 0 0
3:53 am 03:53 Mostly Cloudy with Nearby Thunderstorms 71 21.7 64 17.8 79 79 Calm 29.99 1016 10 16.0934 0 0
4:19 am 04:19 Cloudy with Light Thunderstorms 70 21.1 64 17.8 82 82 NE 5 7 30 1016 10 16.0934 0 0.0254
4:38 am 04:38 Cloudy with Nearby Thunderstorms 70 21.1 64 17.8 82 82 E 3 6 30 1016 10 16.0934 0 0.0254
4:53 am 04:53 Cloudy with Light Thunderstorms 69 20.6 65 18.3 87 87 Calm 29.99 1016 10 16.0934 0 0.0254
5:13 am 05:13 Cloudy with Nearby Thunderstorms 69 20.6 66 18.9 90 90 Calm 30 1016 10 16.0934 0.01 0.254
5:48 am 05:48 Cloudy 68 20 64 18 88 88 E 6 9 30 1016 10 16.0934 0.01 0.254
5:53 am 05:53 Cloudy 68 20 65 18.3 90 90 Calm 29.99 1016 10 16.0934 0.01 0.254
6:53 am 06:53 Mostly Sunny 68 20 65 18.3 90 90 ESE 3 6 29.99 1016 10 16.0934 0 0
7:53 am 07:53 Sunny 70 21.1 66 18.9 87 87 Calm 29.98 1015 10 16.0934 0 0
8:53 am 08:53 Partly Cloudy 76 24.4 69 20.6 79 79 SW 5 7 30 1016 10 16.0934 0 0
9:21 am 09:21 Cloudy with Nearby Thunderstorms 76 24.4 69 20.6 79 79 SW 9 15 30 1016 10 16.0934 0 0
9:31 am 09:31 Cloudy with Thunderstorms 76 24.4 69 20.6 79 79 SSW 10 17 30 1016 10 16.0934 0 0
9:53 am 09:53 Cloudy with Thunderstorms 74 23.3 69 20.6 85 85 SW 7 11 30 1016 10 16.0934 0 0
10:01 am 10:01 Cloudy 74 23.3 69 20.6 85 85 VRB 5 7 30 1016 10 16.0934 0 0
10:09 am 10:09 Cloudy with Nearby Thunderstorms 75 23.9 70 21.1 84 84 SW 3 6 30 1016 10 16.0934 0 0
10:24 am 10:24 Cloudy 77 25 71 21.7 82 82 SSW 6 9 30 1016 10 16.0934 0 0
10:53 am 10:53 Mostly Sunny 80 26.7 72 22.2 76 76 SW 6 9 29.98 1015 10 16.0934 0 0
11:53 am 11:53 Sunny 84 28.9 74 23.3 72 72 SW 8 13 29.98 1015 10 16.0934 0 0
12:53 pm 12:53 Mostly Cloudy 84 28.9 73 22.8 70 70 SW 12 19 29.95 1014 10 16.0934 0 0
1:53 pm 13:53 Partly Cloudy 86 30 72 22.2 63 63 SW 12 19 29.93 1014 10 16.0934 0 0
2:53 pm 14:53 Mostly Sunny 86 30 72 22.2 63 63 SW 9 15 29.93 1014 10 16.0934 0 0
3:53 pm 15:53 Sunny 87 30.6 71 21.7 59 59 SW 8 13 29.91 1013 10 16.0934 0 0
4:53 pm 16:53 Mostly Sunny 86 30 71 21.7 61 61 SW 12 19 29.92 1013 10 16.0934 0 0
5:53 pm 17:53 Sunny 84 28.9 71 21.7 65 65 WSW 10 17 29.9 1013 10 16.0934 0 0
6:53 pm 18:53 Sunny 85 29.4 69 20.6 59 59 VRB 7 11 29.9 1013 10 16.0934 0 0
7:53 pm 19:53 Sunny 83 28.3 66 18.9 57 57 SW 7 11 29.9 1013 10 16.0934 0 0
8:53 pm 20:53 Mostly Cloudy 78 25.6 67 19.4 69 69 SSW 3 6 29.9 1013 10 16.0934 0 0
9:53 pm 21:53 Mostly Cloudy 76 24.4 69 20.6 79 79 Calm 29.92 1013 10 16.0934 0 0
10:53 pm 22:53 Mostly Clear 80 26.7 68 20 67 67 S 5 7 29.91 1013 10 16.0934 0 0
11:53 pm 23:53 Mostly Cloudy 81 27.2 69 20.6 67 67 VRB 6 9 29.93 1013 10 16.0934 0 0

Powered by AerisWeather